createdAt,value
2022-08-25T00:00:18.136Z,0.00
2022-08-25T00:00:47.304Z,0.00
2022-08-25T00:01:18.382Z,0.00
2022-08-25T00:01:49.135Z,0.00
2022-08-25T00:02:22.363Z,0.00
2022-08-25T00:02:56.233Z,0.00
2022-08-25T00:03:25.324Z,0.00
2022-08-25T00:03:53.616Z,0.00
2022-08-25T00:04:24.445Z,0.00
2022-08-25T00:04:55.215Z,0.00
2022-08-25T00:05:27.729Z,0.00
2022-08-25T00:06:02.492Z,0.00
2022-08-25T00:06:28.353Z,0.00
2022-08-25T00:07:02.963Z,0.00
2022-08-25T00:07:31.989Z,0.00
2022-08-25T00:09:05.166Z,0.00
2022-08-25T00:09:35.259Z,0.00
2022-08-25T00:10:16.177Z,0.00
2022-08-25T00:10:36.655Z,0.00
2022-08-25T00:11:07.317Z,0.00
2022-08-25T00:11:39.032Z,0.00
2022-08-25T00:12:10.921Z,0.00
2022-08-25T00:12:41.993Z,0.00
2022-08-25T00:13:11.630Z,0.00
2022-08-25T00:13:42.945Z,0.00
2022-08-25T00:14:13.577Z,0.00
2022-08-25T00:14:46.714Z,0.00
2022-08-25T00:15:16.717Z,0.00
2022-08-25T00:15:48.494Z,0.00
2022-08-25T00:16:17.704Z,0.00
2022-08-25T00:16:49.555Z,0.00
2022-08-25T00:17:21.870Z,0.00
2022-08-25T00:17:52.655Z,0.00
2022-08-25T00:18:22.589Z,0.00
2022-08-25T00:18:54.111Z,0.00
2022-08-25T00:19:24.576Z,0.00
2022-08-25T00:19:55.934Z,0.00
2022-08-25T00:20:29.093Z,0.00
2022-08-25T00:20:56.848Z,0.00
2022-08-25T00:21:27.854Z,0.00
2022-08-25T00:21:59.444Z,0.00
2022-08-25T00:22:31.114Z,0.00
2022-08-25T00:23:02.341Z,0.00
2022-08-25T00:23:33.838Z,0.00
2022-08-25T00:24:03.541Z,0.00
2022-08-25T00:24:33.772Z,0.00
2022-08-25T00:25:25.720Z,0.00
2022-08-25T00:25:40.134Z,0.00
2022-08-25T00:26:24.702Z,0.00
2022-08-25T00:26:38.472Z,0.00
2022-08-25T00:27:10.501Z,0.00
2022-08-25T00:27:42.415Z,0.00
2022-08-25T00:28:31.576Z,0.00
2022-08-25T00:28:42.776Z,0.00
2022-08-25T00:29:13.605Z,0.00
2022-08-25T00:29:43.931Z,0.00
2022-08-25T00:30:18.434Z,0.00
2022-08-25T00:31:15.015Z,0.00
2022-08-25T00:31:52.926Z,0.00
2022-08-25T00:32:18.941Z,0.00
2022-08-25T00:32:55.056Z,0.00
2022-08-25T00:33:23.917Z,0.00
2022-08-25T00:33:53.317Z,0.00
2022-08-25T00:34:23.587Z,0.00
2022-08-25T00:34:54.721Z,0.00
2022-08-25T00:35:25.466Z,0.00
2022-08-25T00:36:17.662Z,0.00
2022-08-25T00:36:27.001Z,0.00
2022-08-25T00:37:15.125Z,0.00
2022-08-25T00:37:29.346Z,0.00
2022-08-25T00:37:59.709Z,0.00
2022-08-25T00:38:32.531Z,0.00
2022-08-25T00:39:04.082Z,0.00
2022-08-25T00:39:34.124Z,0.00
2022-08-25T00:40:06.615Z,0.00
2022-08-25T00:40:34.875Z,0.00
2022-08-25T00:41:07.898Z,0.00
2022-08-25T00:41:37.557Z,0.00
2022-08-25T00:42:13.415Z,0.00
2022-08-25T00:42:39.020Z,0.00
2022-08-25T00:43:09.473Z,0.00
2022-08-25T00:43:40.720Z,0.00
2022-08-25T00:44:12.762Z,0.00
2022-08-25T00:44:43.294Z,0.00
2022-08-25T00:45:16.517Z,0.00
2022-08-25T00:46:02.890Z,0.00
2022-08-25T00:46:15.498Z,0.00
2022-08-25T00:46:46.481Z,0.00
2022-08-25T00:47:17.559Z,0.00
2022-08-25T00:47:48.798Z,0.00
2022-08-25T00:48:18.416Z,0.00
2022-08-25T00:48:51.416Z,0.00
2022-08-25T00:49:25.240Z,0.00
2022-08-25T00:49:52.594Z,0.00
2022-08-25T00:50:26.584Z,0.00
2022-08-25T00:50:55.714Z,0.00
2022-08-25T00:51:26.460Z,0.00
2022-08-25T00:51:56.522Z,0.00
2022-08-25T00:52:27.613Z,0.00
2022-08-25T00:52:58.782Z,0.00
2022-08-25T00:53:29.491Z,0.00
2022-08-25T00:54:01.261Z,0.00
2022-08-25T00:54:34.760Z,0.00
2022-08-25T00:55:08.516Z,0.00
2022-08-25T00:55:36.395Z,0.00
2022-08-25T00:56:05.045Z,0.00
2022-08-25T00:56:35.761Z,0.00
2022-08-25T00:57:07.116Z,0.00
2022-08-25T00:57:40.616Z,0.00
2022-08-25T00:58:08.583Z,0.00
2022-08-25T00:58:39.655Z,0.00
2022-08-25T00:59:10.705Z,0.00
2022-08-25T00:59:42.828Z,0.00
2022-08-25T01:00:15.137Z,0.00
2022-08-25T01:00:47.520Z,0.00
2022-08-25T01:01:15.135Z,0.00
2022-08-25T01:01:45.839Z,0.00
2022-08-25T01:02:16.846Z,0.00
2022-08-25T01:02:47.746Z,0.00
2022-08-25T01:03:18.918Z,0.00
2022-08-25T01:03:49.409Z,0.00
2022-08-25T01:04:20.842Z,0.00
2022-08-25T01:04:55.681Z,0.00
2022-08-25T01:05:24.532Z,0.00
2022-08-25T01:05:54.976Z,0.00
2022-08-25T01:06:26.593Z,0.00
2022-08-25T01:06:59.067Z,0.00
2022-08-25T01:07:26.531Z,0.00
2022-08-25T01:07:58.569Z,0.00
2022-08-25T01:08:32.358Z,0.00
2022-08-25T01:08:59.811Z,0.00
2022-08-25T01:09:37.203Z,0.00
2022-08-25T01:10:02.716Z,0.00
2022-08-25T01:10:33.841Z,0.00
2022-08-25T01:11:03.644Z,0.00
2022-08-25T01:11:35.905Z,0.00
2022-08-25T01:12:06.658Z,0.00
2022-08-25T01:12:36.897Z,0.00
2022-08-25T01:13:16.592Z,0.00
2022-08-25T01:13:39.001Z,0.00
2022-08-25T01:14:09.735Z,0.00
2022-08-25T01:14:40.682Z,0.00
2022-08-25T01:15:12.589Z,0.00
2022-08-25T01:15:43.796Z,0.00
2022-08-25T01:16:14.811Z,0.00
2022-08-25T01:16:45.294Z,0.00
2022-08-25T01:17:15.930Z,0.00
2022-08-25T01:17:47.416Z,0.00
2022-08-25T01:18:17.474Z,0.00
2022-08-25T01:18:49.217Z,0.00
2022-08-25T01:19:19.386Z,0.00
2022-08-25T01:19:50.705Z,0.00
2022-08-25T01:20:22.573Z,0.00
2022-08-25T01:20:55.942Z,0.00
2022-08-25T01:21:25.415Z,0.00
2022-08-25T01:21:55.870Z,0.00
2022-08-25T01:22:26.544Z,0.00
2022-08-25T01:22:57.643Z,0.00
2022-08-25T01:23:27.677Z,0.00
2022-08-25T01:23:59.144Z,0.00
2022-08-25T01:24:29.747Z,0.00
2022-08-25T01:25:01.179Z,0.00
2022-08-25T01:25:31.816Z,0.00
2022-08-25T01:26:03.821Z,0.00
2022-08-25T01:26:35.062Z,0.00
2022-08-25T01:27:06.486Z,0.00
2022-08-25T01:27:36.352Z,0.00
2022-08-25T01:28:07.044Z,0.00
2022-08-25T01:28:38.751Z,0.00
2022-08-25T01:29:09.377Z,0.00
2022-08-25T01:29:39.687Z,0.00
2022-08-25T01:30:11.919Z,0.00
2022-08-25T01:30:41.921Z,0.00
2022-08-25T01:31:23.922Z,0.00
2022-08-25T01:31:45.426Z,0.00
2022-08-25T01:32:16.776Z,0.00
2022-08-25T01:32:46.213Z,0.00
2022-08-25T01:33:16.826Z,0.00
2022-08-25T01:34:21.790Z,0.00
2022-08-25T01:34:49.780Z,0.00
2022-08-25T01:35:20.883Z,0.00
2022-08-25T01:35:51.884Z,0.00
2022-08-25T01:36:39.968Z,0.00
2022-08-25T01:36:55.473Z,0.00
2022-08-25T01:37:28.197Z,0.00
2022-08-25T01:37:56.611Z,0.00
2022-08-25T01:38:27.137Z,0.00
2022-08-25T01:39:01.245Z,0.00
2022-08-25T01:39:29.483Z,0.00
2022-08-25T01:40:00.138Z,0.00
2022-08-25T01:40:30.735Z,0.00
2022-08-25T01:41:32.933Z,0.00
2022-08-25T01:42:04.013Z,0.00
2022-08-25T01:42:40.743Z,0.00
2022-08-25T01:43:07.178Z,0.00
2022-08-25T01:43:37.722Z,0.00
2022-08-25T01:44:14.135Z,0.00
2022-08-25T01:44:45.850Z,0.00
2022-08-25T01:45:12.323Z,0.00
2022-08-25T01:45:40.525Z,0.00
2022-08-25T01:46:11.896Z,0.00
2022-08-25T01:46:46.776Z,0.00
2022-08-25T01:47:14.801Z,0.00
2022-08-25T01:47:45.796Z,0.00
2022-08-25T01:48:16.771Z,0.00
2022-08-25T01:48:50.204Z,0.00
2022-08-25T01:49:17.830Z,0.00
2022-08-25T01:49:51.013Z,0.00
2022-08-25T01:50:20.325Z,0.00
2022-08-25T01:50:50.681Z,0.00
2022-08-25T01:51:22.356Z,0.00
2022-08-25T01:51:53.178Z,0.00
2022-08-25T01:52:23.995Z,0.00
2022-08-25T01:52:56.076Z,0.00
2022-08-25T01:53:27.219Z,0.00
2022-08-25T01:53:56.990Z,0.00
2022-08-25T01:54:29.084Z,0.00
2022-08-25T01:54:59.428Z,0.00
2022-08-25T01:55:30.014Z,0.00
2022-08-25T01:56:01.222Z,0.00
2022-08-25T01:56:31.950Z,0.00
2022-08-25T01:57:03.833Z,0.00
2022-08-25T01:57:34.643Z,0.00
2022-08-25T01:58:06.539Z,0.00
2022-08-25T01:59:07.931Z,0.00
2022-08-25T01:59:38.236Z,0.00
2022-08-25T02:00:10.878Z,0.00
2022-08-25T02:00:41.092Z,0.00
2022-08-25T02:01:11.617Z,0.00
2022-08-25T02:01:45.838Z,0.00
2022-08-25T02:02:13.327Z,0.00
2022-08-25T02:02:44.094Z,0.00
2022-08-25T02:03:32.507Z,0.00
2022-08-25T02:03:46.760Z,0.00
2022-08-25T02:04:17.948Z,0.00
2022-08-25T02:04:49.057Z,0.00
2022-08-25T02:05:22.895Z,0.00
2022-08-25T02:05:49.935Z,0.00
2022-08-25T02:06:21.345Z,0.00
2022-08-25T02:06:54.429Z,0.00
2022-08-25T02:07:23.683Z,0.00
2022-08-25T02:07:53.906Z,0.00
2022-08-25T02:08:26.012Z,0.00
2022-08-25T02:08:57.041Z,0.00
2022-08-25T02:09:27.481Z,0.00
2022-08-25T02:09:59.043Z,0.00
2022-08-25T02:10:29.859Z,0.00
2022-08-25T02:10:59.861Z,0.00
2022-08-25T02:11:31.019Z,0.00
2022-08-25T02:12:19.852Z,0.00
2022-08-25T02:12:33.167Z,0.00
2022-08-25T02:13:04.301Z,0.00
2022-08-25T02:13:35.104Z,0.00
2022-08-25T02:14:07.965Z,0.00
2022-08-25T02:14:38.067Z,0.00
2022-08-25T02:15:12.230Z,0.00
2022-08-25T02:15:41.763Z,0.00
2022-08-25T02:16:10.353Z,0.00
2022-08-25T02:16:41.251Z,0.00
2022-08-25T02:17:11.953Z,0.00
2022-08-25T02:17:42.819Z,0.00
2022-08-25T02:18:14.149Z,0.00
2022-08-25T02:18:45.604Z,0.00
2022-08-25T02:19:17.424Z,0.00
2022-08-25T02:19:47.835Z,0.00
2022-08-25T02:20:18.837Z,0.00
2022-08-25T02:20:49.051Z,0.00
2022-08-25T02:21:19.941Z,0.00
2022-08-25T02:21:51.078Z,0.00
2022-08-25T02:22:21.851Z,0.00
2022-08-25T02:22:56.638Z,0.00
2022-08-25T02:23:23.790Z,0.00
2022-08-25T02:23:55.560Z,0.00
2022-08-25T02:24:26.906Z,0.00
2022-08-25T02:25:16.797Z,0.00
2022-08-25T02:25:28.370Z,0.00
2022-08-25T02:25:59.865Z,0.00
2022-08-25T02:26:29.772Z,0.00
2022-08-25T02:27:01.196Z,0.00
2022-08-25T02:27:31.916Z,0.00
2022-08-25T02:28:10.437Z,0.00
2022-08-25T02:28:33.959Z,0.00
2022-08-25T02:29:05.933Z,0.00
2022-08-25T02:29:35.865Z,0.00
2022-08-25T02:30:07.934Z,0.00
2022-08-25T02:30:38.903Z,0.00
2022-08-25T02:31:09.690Z,0.00
2022-08-25T02:31:40.026Z,0.00
2022-08-25T02:32:11.700Z,0.00
2022-08-25T02:32:42.093Z,0.00
2022-08-25T02:33:13.393Z,0.00
2022-08-25T02:33:44.800Z,0.00
2022-08-25T02:34:14.944Z,0.00
2022-08-25T02:34:47.811Z,0.00
2022-08-25T02:35:18.915Z,0.00
2022-08-25T02:35:49.696Z,0.00
2022-08-25T02:36:19.755Z,0.00
2022-08-25T02:36:50.119Z,0.00
2022-08-25T02:37:52.047Z,0.00
2022-08-25T02:38:23.074Z,0.00
2022-08-25T02:38:53.872Z,0.00
2022-08-25T02:39:42.356Z,0.00
2022-08-25T02:39:58.880Z,0.00
2022-08-25T02:40:28.761Z,0.00
2022-08-25T02:40:59.871Z,0.00
2022-08-25T02:41:31.288Z,0.00
2022-08-25T02:42:01.253Z,0.00
2022-08-25T02:42:49.087Z,0.00
2022-08-25T02:43:02.499Z,0.00
2022-08-25T02:43:33.124Z,0.00
2022-08-25T02:44:04.309Z,0.00
2022-08-25T02:44:35.563Z,0.00
2022-08-25T02:45:08.207Z,0.00
2022-08-25T02:45:38.752Z,0.00
2022-08-25T02:46:09.823Z,0.00
2022-08-25T02:46:39.698Z,0.00
2022-08-25T02:47:10.690Z,0.00
2022-08-25T02:47:41.116Z,0.00
2022-08-25T02:48:12.219Z,0.00
2022-08-25T02:48:43.079Z,0.00
2022-08-25T02:49:14.441Z,0.00
2022-08-25T02:49:45.323Z,0.00
2022-08-25T02:50:17.149Z,0.00
2022-08-25T02:50:48.163Z,0.00
2022-08-25T02:51:35.497Z,0.00
2022-08-25T02:51:49.784Z,0.00
2022-08-25T02:52:20.392Z,0.00
2022-08-25T02:52:51.852Z,0.00
2022-08-25T02:53:24.014Z,0.00
2022-08-25T02:53:53.407Z,0.00
2022-08-25T02:54:24.256Z,0.00
2022-08-25T02:54:55.274Z,0.00
2022-08-25T02:55:26.376Z,0.00
2022-08-25T02:55:58.253Z,0.00
2022-08-25T02:56:30.593Z,0.00
2022-08-25T02:57:01.259Z,0.00
2022-08-25T02:57:50.805Z,0.00
2022-08-25T02:58:03.125Z,0.00
2022-08-25T02:58:34.956Z,0.00
2022-08-25T02:59:03.713Z,0.00
2022-08-25T02:59:34.532Z,0.00
2022-08-25T03:00:10.025Z,0.00
2022-08-25T03:00:46.516Z,0.00
2022-08-25T03:01:08.449Z,0.00
2022-08-25T03:01:40.290Z,0.00
2022-08-25T03:02:10.232Z,0.00
2022-08-25T03:02:45.918Z,0.00
2022-08-25T03:03:13.848Z,0.00
2022-08-25T03:03:44.258Z,0.00
2022-08-25T03:04:13.021Z,0.00
2022-08-25T03:04:44.279Z,0.00
2022-08-25T03:05:15.399Z,0.00
2022-08-25T03:05:46.189Z,0.00
2022-08-25T03:06:18.036Z,0.00
2022-08-25T03:07:03.630Z,0.00
2022-08-25T03:07:20.370Z,0.00
2022-08-25T03:07:52.084Z,0.00
2022-08-25T03:08:21.284Z,0.00
2022-08-25T03:08:52.413Z,0.00
2022-08-25T03:09:41.337Z,0.00
2022-08-25T03:09:54.235Z,0.00
2022-08-25T03:10:25.841Z,0.00
2022-08-25T03:10:56.226Z,0.00
2022-08-25T03:11:36.657Z,0.00
2022-08-25T03:11:59.112Z,0.00
2022-08-25T03:12:30.263Z,0.00
2022-08-25T03:13:01.237Z,0.00
2022-08-25T03:13:31.844Z,0.00
2022-08-25T03:14:06.017Z,0.00
2022-08-25T03:14:33.530Z,0.00
2022-08-25T03:15:05.070Z,0.00
2022-08-25T03:15:35.220Z,0.00
2022-08-25T03:16:11.040Z,0.00
2022-08-25T03:16:37.720Z,0.00
2022-08-25T03:17:09.373Z,0.00
2022-08-25T03:17:40.126Z,0.00
2022-08-25T03:18:11.454Z,0.00
2022-08-25T03:18:42.299Z,0.00
2022-08-25T03:19:13.203Z,0.00
2022-08-25T03:19:43.206Z,0.00
2022-08-25T03:20:14.611Z,0.00
2022-08-25T03:20:45.357Z,0.00
2022-08-25T03:21:16.255Z,0.00
2022-08-25T03:21:47.839Z,0.00
2022-08-25T03:22:21.243Z,0.00
2022-08-25T03:22:50.677Z,0.00
2022-08-25T03:23:23.458Z,0.00
2022-08-25T03:23:51.629Z,0.00
2022-08-25T03:24:25.120Z,0.00
2022-08-25T03:24:55.853Z,0.00
2022-08-25T03:25:24.428Z,0.00
2022-08-25T03:25:54.883Z,0.00
2022-08-25T03:26:26.230Z,0.00
2022-08-25T03:26:58.735Z,0.00
2022-08-25T03:27:29.044Z,0.00
2022-08-25T03:28:01.322Z,0.00
2022-08-25T03:28:30.830Z,0.00
2022-08-25T03:29:04.687Z,0.00
2022-08-25T03:30:04.752Z,0.00
2022-08-25T03:30:34.467Z,0.00
2022-08-25T03:31:05.653Z,0.00
2022-08-25T03:31:36.316Z,0.00
2022-08-25T03:32:07.440Z,0.00
2022-08-25T03:32:39.796Z,0.00
2022-08-25T03:33:10.813Z,0.00
2022-08-25T03:33:41.576Z,0.00
2022-08-25T03:34:11.295Z,0.00
2022-08-25T03:34:42.476Z,0.00
2022-08-25T03:35:13.169Z,0.00
2022-08-25T03:35:44.254Z,0.00
2022-08-25T03:36:15.479Z,0.00
2022-08-25T03:36:46.445Z,0.00
2022-08-25T03:37:17.225Z,0.00
2022-08-25T03:37:48.966Z,0.00
2022-08-25T03:38:20.551Z,0.00
2022-08-25T03:38:51.183Z,0.00
2022-08-25T03:39:21.609Z,0.00
2022-08-25T03:39:52.541Z,0.00
2022-08-25T03:40:23.768Z,0.00
2022-08-25T03:40:54.397Z,0.00
2022-08-25T03:41:28.092Z,0.00
2022-08-25T03:41:56.260Z,0.00
2022-08-25T03:42:27.214Z,0.00
2022-08-25T03:42:58.693Z,0.00
2022-08-25T03:43:30.708Z,0.00
2022-08-25T03:44:01.371Z,0.00
2022-08-25T03:44:34.533Z,0.00
2022-08-25T03:45:03.231Z,0.00
2022-08-25T03:45:34.004Z,0.00
2022-08-25T03:46:04.294Z,0.00
2022-08-25T03:46:35.096Z,0.00
2022-08-25T03:47:06.396Z,0.00
2022-08-25T03:47:37.505Z,0.00
2022-08-25T03:48:08.434Z,0.00
2022-08-25T03:48:40.759Z,0.00
2022-08-25T03:49:12.145Z,0.00
2022-08-25T03:49:41.724Z,0.00
2022-08-25T03:50:13.097Z,0.00
2022-08-25T03:50:43.441Z,0.00
2022-08-25T03:51:14.135Z,0.00
2022-08-25T03:51:45.227Z,0.00
2022-08-25T03:52:22.208Z,0.00
2022-08-25T03:52:47.252Z,0.00
2022-08-25T03:53:18.240Z,0.00
2022-08-25T03:53:52.482Z,0.00
2022-08-25T03:54:21.458Z,0.00
2022-08-25T03:54:52.323Z,0.00
2022-08-25T03:55:25.405Z,0.00
2022-08-25T03:56:24.741Z,0.00
2022-08-25T03:56:55.349Z,0.00
2022-08-25T03:57:30.514Z,0.00
2022-08-25T03:57:57.226Z,0.00
2022-08-25T03:58:28.423Z,0.00
2022-08-25T03:59:01.342Z,0.00
2022-08-25T03:59:32.453Z,0.00
2022-08-25T04:00:10.555Z,0.00
2022-08-25T04:00:36.792Z,0.00
2022-08-25T04:01:03.719Z,0.00
2022-08-25T04:01:34.474Z,0.00
2022-08-25T04:02:05.871Z,0.00
2022-08-25T04:02:36.750Z,0.00
2022-08-25T04:03:24.538Z,0.00
2022-08-25T04:03:41.461Z,0.00
2022-08-25T04:04:09.901Z,0.00
2022-08-25T04:04:41.262Z,0.00
2022-08-25T04:05:11.618Z,0.00
2022-08-25T04:05:42.280Z,0.00
2022-08-25T04:06:13.121Z,0.00
2022-08-25T04:06:44.590Z,0.00
2022-08-25T04:07:19.671Z,0.00
2022-08-25T04:07:48.335Z,0.00
2022-08-25T04:08:19.148Z,0.00
2022-08-25T04:08:49.334Z,0.00
2022-08-25T04:09:23.848Z,0.00
2022-08-25T04:09:53.979Z,0.00
2022-08-25T04:10:25.387Z,0.00
2022-08-25T04:10:54.594Z,0.00
2022-08-25T04:11:23.823Z,0.00
2022-08-25T04:11:54.451Z,0.00
2022-08-25T04:12:25.105Z,0.00
2022-08-25T04:12:56.665Z,0.00
2022-08-25T04:13:28.700Z,0.00
2022-08-25T04:13:59.464Z,0.00
2022-08-25T04:14:29.776Z,0.00
2022-08-25T04:15:05.854Z,0.00
2022-08-25T04:15:32.676Z,0.36
2022-08-25T04:16:03.197Z,0.00
2022-08-25T04:16:35.722Z,0.85
2022-08-25T04:17:09.015Z,1.22
2022-08-25T04:17:39.987Z,1.22
2022-08-25T04:18:06.969Z,0.85
2022-08-25T04:18:39.412Z,0.85
2022-08-25T04:19:09.036Z,1.22
2022-08-25T04:19:39.990Z,1.22
2022-08-25T04:20:14.270Z,1.22
2022-08-25T04:20:46.530Z,0.85
2022-08-25T04:21:12.471Z,1.71
2022-08-25T04:21:43.513Z,1.22
2022-08-25T04:22:14.440Z,2.08
2022-08-25T04:22:45.746Z,1.71
2022-08-25T04:23:16.923Z,2.57
2022-08-25T04:23:48.777Z,2.57
2022-08-25T04:24:20.033Z,2.08
2022-08-25T04:24:50.189Z,2.94
2022-08-25T04:25:21.404Z,2.94
2022-08-25T04:25:51.816Z,2.08
2022-08-25T04:26:23.403Z,3.43
2022-08-25T04:26:57.100Z,3.43
2022-08-25T04:27:28.616Z,3.43
2022-08-25T04:27:59.333Z,4.28
2022-08-25T04:28:29.616Z,3.79
2022-08-25T04:29:13.762Z,4.77
2022-08-25T04:29:35.742Z,3.79
2022-08-25T04:30:02.701Z,4.28
2022-08-25T04:30:38.085Z,4.77
2022-08-25T04:31:03.006Z,4.28
2022-08-25T04:31:39.211Z,5.14
2022-08-25T04:32:05.074Z,5.14
2022-08-25T04:32:35.176Z,5.63
2022-08-25T04:33:06.017Z,5.99
2022-08-25T04:33:49.832Z,5.63
2022-08-25T04:34:30.689Z,5.99
2022-08-25T04:34:39.218Z,5.99
2022-08-25T04:35:17.264Z,6.85
2022-08-25T04:35:47.085Z,6.85
2022-08-25T04:36:12.646Z,6.85
2022-08-25T04:36:52.632Z,7.70
2022-08-25T04:37:13.572Z,7.34
2022-08-25T04:37:44.300Z,7.70
2022-08-25T04:38:21.272Z,8.56
2022-08-25T04:38:46.677Z,7.70
2022-08-25T04:39:19.074Z,7.70
2022-08-25T04:39:49.696Z,8.56
2022-08-25T04:40:33.618Z,8.56
2022-08-25T04:40:52.491Z,8.56
2022-08-25T04:41:38.185Z,9.05
2022-08-25T04:41:52.717Z,9.05
2022-08-25T04:42:23.297Z,9.91
2022-08-25T04:42:54.459Z,9.91
2022-08-25T04:43:25.967Z,10.39
2022-08-25T04:44:00.149Z,10.39
2022-08-25T04:44:28.952Z,9.91
2022-08-25T04:44:59.464Z,10.39
2022-08-25T04:45:34.700Z,11.25
2022-08-25T04:46:01.638Z,10.77
2022-08-25T04:46:36.731Z,11.62
2022-08-25T04:47:03.210Z,11.25
2022-08-25T04:47:33.924Z,12.11
2022-08-25T04:48:10.915Z,11.25
2022-08-25T04:48:35.635Z,12.48
2022-08-25T04:49:08.028Z,12.48
2022-08-25T04:49:38.714Z,12.97
2022-08-25T04:50:09.467Z,13.33
2022-08-25T04:50:39.454Z,12.97
2022-08-25T04:51:10.929Z,14.31
2022-08-25T04:51:43.606Z,13.82
2022-08-25T04:52:14.420Z,14.31
2022-08-25T04:52:44.571Z,13.82
2022-08-25T04:53:14.379Z,13.82
2022-08-25T04:53:45.492Z,15.53
2022-08-25T04:54:19.458Z,15.17
2022-08-25T04:54:48.464Z,15.17
2022-08-25T04:55:19.748Z,15.53
2022-08-25T04:55:52.878Z,16.02
2022-08-25T04:56:21.649Z,16.39
2022-08-25T04:56:58.028Z,16.02
2022-08-25T04:57:23.252Z,17.73
2022-08-25T04:57:53.853Z,16.88
2022-08-25T04:58:27.231Z,17.25
2022-08-25T04:58:55.800Z,17.25
2022-08-25T04:59:30.202Z,17.73
2022-08-25T04:59:57.600Z,18.11
2022-08-25T05:01:13.979Z,18.60
2022-08-25T05:01:31.843Z,19.08
2022-08-25T05:02:14.178Z,18.60
2022-08-25T05:02:54.569Z,19.94
2022-08-25T05:03:06.732Z,19.94
2022-08-25T05:03:56.757Z,19.94
2022-08-25T05:04:09.438Z,19.94
2022-08-25T05:08:03.665Z,21.65
2022-08-25T05:09:05.433Z,22.87
2022-08-25T05:17:42.261Z,23.36
2022-08-25T05:18:12.495Z,26.42
2022-08-25T05:18:37.223Z,26.79
2022-08-25T05:19:05.195Z,27.28
2022-08-25T05:19:36.147Z,27.28
2022-08-25T05:20:10.230Z,27.65
2022-08-25T05:20:37.671Z,28.63
2022-08-25T05:21:10.390Z,28.63
2022-08-25T05:22:05.574Z,28.99
2022-08-25T05:22:10.707Z,29.48
2022-08-25T05:24:22.650Z,29.85
2022-08-25T05:24:47.595Z,30.34
2022-08-25T05:28:50.667Z,31.19
2022-08-25T05:28:54.344Z,32.42
2022-08-25T05:29:25.499Z,32.90
2022-08-25T05:29:55.837Z,32.42
2022-08-25T05:30:28.527Z,34.25
2022-08-25T05:31:01.841Z,33.39
2022-08-25T05:31:31.851Z,33.76
2022-08-25T05:31:59.535Z,33.76
2022-08-25T05:32:32.159Z,34.62
2022-08-25T05:33:03.056Z,34.62
2022-08-25T05:33:33.262Z,35.48
2022-08-25T05:34:04.686Z,35.97
2022-08-25T05:34:34.952Z,35.48
2022-08-25T05:35:07.330Z,35.97
2022-08-25T05:35:38.804Z,36.33
2022-08-25T05:36:07.753Z,36.33
2022-08-25T05:36:39.107Z,37.19
2022-08-25T05:37:12.159Z,37.19
2022-08-25T05:37:41.895Z,37.68
2022-08-25T05:38:15.268Z,37.68
2022-08-25T05:38:43.374Z,38.17
2022-08-25T05:39:13.992Z,37.68
2022-08-25T05:39:45.970Z,38.53
2022-08-25T05:40:23.243Z,38.53
2022-08-25T05:40:46.674Z,39.88
2022-08-25T05:41:17.742Z,39.88
2022-08-25T05:41:52.461Z,40.24
2022-08-25T05:42:21.199Z,40.24
2022-08-25T05:42:52.019Z,40.73
2022-08-25T05:43:22.632Z,41.10
2022-08-25T05:44:11.846Z,41.10
2022-08-25T05:44:24.606Z,41.59
2022-08-25T05:44:55.254Z,41.10
2022-08-25T05:45:28.417Z,41.59
2022-08-25T05:45:56.878Z,41.96
2022-08-25T05:46:27.933Z,41.96
2022-08-25T05:46:59.419Z,41.59
2022-08-25T05:47:30.994Z,42.45
2022-08-25T05:48:03.774Z,42.94
2022-08-25T05:48:32.865Z,43.31
2022-08-25T05:49:03.401Z,43.31
2022-08-25T05:49:35.377Z,43.80
2022-08-25T05:50:07.639Z,45.02
2022-08-25T05:50:36.253Z,44.16
2022-08-25T05:51:06.936Z,44.16
2022-08-25T05:51:38.050Z,44.65
2022-08-25T05:52:08.891Z,44.65
2022-08-25T05:52:41.578Z,44.65
2022-08-25T05:53:12.607Z,45.51
2022-08-25T05:53:42.983Z,45.02
2022-08-25T05:54:14.416Z,46.36
2022-08-25T05:54:44.137Z,46.36
2022-08-25T05:55:46.815Z,46.73
2022-08-25T05:56:17.076Z,47.71
2022-08-25T05:56:52.363Z,47.71
2022-08-25T05:57:18.971Z,47.71
2022-08-25T05:57:50.702Z,48.07
2022-08-25T05:58:22.088Z,48.07
2022-08-25T05:58:52.958Z,49.42
2022-08-25T05:59:23.099Z,48.56
2022-08-25T05:59:54.301Z,48.93
2022-08-25T06:00:26.581Z,49.42
2022-08-25T06:00:56.033Z,48.93
2022-08-25T06:01:26.752Z,50.28
2022-08-25T06:01:57.742Z,49.42
2022-08-25T06:02:29.042Z,49.79
2022-08-25T06:03:01.260Z,50.28
2022-08-25T06:03:32.068Z,49.79
2022-08-25T06:04:05.340Z,51.14
2022-08-25T06:04:33.301Z,51.14
2022-08-25T06:05:08.690Z,50.65
2022-08-25T06:05:42.491Z,49.79
2022-08-25T06:07:26.014Z,50.28
2022-08-25T06:07:43.452Z,49.79
2022-08-25T06:08:43.114Z,50.28
2022-08-25T06:09:13.622Z,52.48
2022-08-25T06:09:46.255Z,52.48
2022-08-25T06:10:15.311Z,53.34
2022-08-25T06:10:49.409Z,52.85
2022-08-25T06:11:16.939Z,52.85
2022-08-25T06:11:47.035Z,53.34
2022-08-25T06:12:18.049Z,52.85
2022-08-25T06:12:59.483Z,53.34
2022-08-25T06:13:26.949Z,52.85
2022-08-25T06:14:23.096Z,53.70
2022-08-25T06:14:55.700Z,53.70
2022-08-25T06:15:24.921Z,54.19
2022-08-25T06:15:55.081Z,54.56
2022-08-25T06:16:26.078Z,55.41
2022-08-25T06:16:56.933Z,55.90
2022-08-25T06:17:27.961Z,56.27
2022-08-25T06:18:00.971Z,56.76
2022-08-25T06:18:29.716Z,57.62
2022-08-25T06:19:02.278Z,58.11
2022-08-25T06:19:38.190Z,58.11
2022-08-25T06:20:05.148Z,58.97
2022-08-25T06:20:36.711Z,57.25
2022-08-25T06:21:05.522Z,58.11
2022-08-25T06:21:37.873Z,57.62
2022-08-25T06:22:07.427Z,57.25
2022-08-25T06:22:38.218Z,57.62
2022-08-25T06:23:09.317Z,58.48
2022-08-25T06:23:39.899Z,59.82
2022-08-25T06:24:24.027Z,59.82
2022-08-25T06:24:42.548Z,60.19
2022-08-25T06:25:14.430Z,61.17
2022-08-25T06:25:44.750Z,62.88
2022-08-25T06:26:20.831Z,64.96
2022-08-25T06:26:46.017Z,67.16
2022-08-25T06:27:17.457Z,69.36
2022-08-25T06:27:47.925Z,71.93
2022-08-25T06:28:23.655Z,72.79
2022-08-25T06:28:50.401Z,74.14
2022-08-25T06:29:23.995Z,80.25
2022-08-25T06:29:53.522Z,92.73
2022-08-25T06:30:28.807Z,110.59
2022-08-25T06:30:56.594Z,125.27
2022-08-25T06:31:25.928Z,135.67
2022-08-25T06:31:56.529Z,140.93
2022-08-25T06:32:27.127Z,144.36
2022-08-25T06:32:57.948Z,145.21
2022-08-25T06:33:28.948Z,147.05
2022-08-25T06:34:00.039Z,147.05
2022-08-25T06:34:31.268Z,146.19
2022-08-25T06:35:07.836Z,145.70
2022-08-25T06:35:34.145Z,147.41
2022-08-25T06:36:07.332Z,146.19
2022-08-25T06:36:37.863Z,144.36
2022-08-25T06:37:13.699Z,145.70
2022-08-25T06:37:36.841Z,144.85
2022-08-25T06:38:09.143Z,148.76
2022-08-25T06:38:39.194Z,155.73
2022-08-25T06:39:10.797Z,159.53
2022-08-25T06:40:17.259Z,159.53
2022-08-25T06:40:29.850Z,172.61
2022-08-25T06:40:46.249Z,172.12
2022-08-25T06:41:15.427Z,172.61
2022-08-25T06:41:45.601Z,179.10
2022-08-25T06:42:18.223Z,181.30
2022-08-25T06:42:47.505Z,179.59
2022-08-25T06:43:18.228Z,182.15
2022-08-25T06:43:51.798Z,180.81
2022-08-25T06:44:20.008Z,183.87
2022-08-25T06:44:51.049Z,186.44
2022-08-25T06:45:25.568Z,188.64
2022-08-25T06:45:54.686Z,191.21
2022-08-25T06:46:36.508Z,201.24
2022-08-25T06:46:58.240Z,209.07
2022-08-25T06:47:26.417Z,211.15
2022-08-25T06:47:56.928Z,223.75
2022-08-25T06:48:32.141Z,234.15
2022-08-25T06:48:59.530Z,232.44
2022-08-25T06:49:35.546Z,241.61
2022-08-25T06:50:02.803Z,248.46
2022-08-25T06:50:34.439Z,250.66
2022-08-25T06:51:05.156Z,257.15
2022-08-25T06:51:38.075Z,255.07
2022-08-25T06:52:08.352Z,254.21
2022-08-25T06:52:38.136Z,263.27
2022-08-25T06:53:08.278Z,262.78
2022-08-25T06:53:38.838Z,262.78
2022-08-25T06:54:17.003Z,257.15
2022-08-25T06:54:40.401Z,254.58
2022-08-25T06:55:16.414Z,261.07
2022-08-25T06:55:45.990Z,259.84
2022-08-25T06:56:15.125Z,260.21
2022-08-25T06:56:45.253Z,268.52
2022-08-25T06:57:16.511Z,273.30
2022-08-25T06:57:49.790Z,272.32
2022-08-25T06:58:22.993Z,264.61
2022-08-25T06:58:50.530Z,261.55
2022-08-25T06:59:23.070Z,259.35
2022-08-25T06:59:53.578Z,259.35
2022-08-25T07:00:36.838Z,260.69
2022-08-25T07:00:56.788Z,260.21
2022-08-25T07:01:26.879Z,263.76
2022-08-25T07:01:55.847Z,271.95
2022-08-25T07:02:27.002Z,277.58
2022-08-25T07:02:58.879Z,279.78
2022-08-25T07:03:29.930Z,276.72
2022-08-25T07:03:58.303Z,273.30
2022-08-25T07:04:29.119Z,268.52
2022-08-25T07:05:01.191Z,270.61
2022-08-25T07:05:40.790Z,270.24
2022-08-25T07:06:18.339Z,270.61
2022-08-25T07:06:37.178Z,270.61
2022-08-25T07:07:05.257Z,271.95
2022-08-25T07:07:43.983Z,273.66
2022-08-25T07:08:07.166Z,272.32
2022-08-25T07:08:38.485Z,273.30
2022-08-25T07:09:08.167Z,274.15
2022-08-25T07:09:44.351Z,276.72
2022-08-25T07:10:11.508Z,279.78
2022-08-25T07:10:41.420Z,282.84
2022-08-25T07:11:16.228Z,280.15